createdAt,value
2017-12-30T00:01:13.313Z,74.60
2017-12-30T00:03:39.556Z,74.60
2017-12-30T00:06:05.705Z,75.10
2017-12-30T00:08:32.667Z,74.80
2017-12-30T00:10:59.598Z,74.50
2017-12-30T00:13:25.800Z,74.50
2017-12-30T00:15:51.967Z,73.70
2017-12-30T00:18:18.942Z,74.30
2017-12-30T00:20:45.149Z,74.30
2017-12-30T00:23:12.100Z,74.40
2017-12-30T00:25:38.338Z,75.10
2017-12-30T00:28:04.535Z,75.60
2017-12-30T00:30:30.728Z,74.30
2017-12-30T00:32:56.920Z,74.60
2017-12-30T00:35:23.122Z,74.90
2017-12-30T00:37:49.283Z,75.20
2017-12-30T00:40:15.477Z,74.00
2017-12-30T00:42:41.656Z,74.20
2017-12-30T00:45:07.837Z,74.00
2017-12-30T00:47:34.787Z,75.70
2017-12-30T00:50:01.759Z,75.90
2017-12-30T00:52:27.920Z,75.90
2017-12-30T00:54:54.100Z,74.10
2017-12-30T00:57:20.325Z,74.40
2017-12-30T00:59:46.500Z,73.60
2017-12-30T01:02:12.732Z,75.20
2017-12-30T01:04:38.934Z,76.00
2017-12-30T01:07:05.150Z,75.90
2017-12-30T01:09:31.392Z,74.30
2017-12-30T01:11:57.590Z,75.10
2017-12-30T01:14:23.806Z,75.70
2017-12-30T01:16:50.781Z,75.70
2017-12-30T01:19:16.930Z,75.70
2017-12-30T01:21:43.151Z,76.30
2017-12-30T01:24:09.344Z,74.80
2017-12-30T01:26:36.326Z,75.30
2017-12-30T01:29:02.530Z,75.30
2017-12-30T01:31:28.754Z,75.90
2017-12-30T01:33:55.005Z,76.50
2017-12-30T01:36:21.222Z,76.50
2017-12-30T01:38:47.422Z,77.00
2017-12-30T01:41:14.378Z,77.20
2017-12-30T01:43:40.550Z,76.40
2017-12-30T01:46:06.731Z,75.10
2017-12-30T01:48:33.681Z,75.40
2017-12-30T01:50:59.830Z,75.50
2017-12-30T01:53:26.031Z,75.80
2017-12-30T01:55:52.263Z,76.70
2017-12-30T01:58:18.487Z,75.80
2017-12-30T02:00:44.675Z,75.60
2017-12-30T02:03:10.926Z,75.60
2017-12-30T02:05:37.857Z,75.50
2017-12-30T02:08:04.083Z,75.50
2017-12-30T02:10:31.064Z,76.90
2017-12-30T02:12:57.296Z,76.00
2017-12-30T02:15:23.507Z,75.30
2017-12-30T02:17:50.450Z,74.80
2017-12-30T02:20:17.406Z,75.20
2017-12-30T02:22:43.588Z,75.10
2017-12-30T02:25:09.782Z,75.70
2017-12-30T02:27:35.941Z,76.50
2017-12-30T02:30:02.161Z,75.30
2017-12-30T02:32:28.409Z,75.10
2017-12-30T02:34:55.364Z,75.10
2017-12-30T02:37:22.318Z,74.70
2017-12-30T02:39:49.286Z,73.90
2017-12-30T02:42:15.472Z,73.90
2017-12-30T02:44:41.685Z,73.80
2017-12-30T02:47:07.838Z,74.90
2017-12-30T02:49:34.787Z,74.70
2017-12-30T02:52:01.744Z,74.70
2017-12-30T02:54:28.664Z,74.80
2017-12-30T02:56:54.870Z,74.80
2017-12-30T02:59:21.029Z,75.10
2017-12-30T03:01:48.014Z,75.50
2017-12-30T03:04:14.214Z,74.60
2017-12-30T03:06:41.100Z,75.00
2017-12-30T03:09:07.249Z,74.90
2017-12-30T03:11:33.446Z,75.70
2017-12-30T03:13:59.628Z,74.40
2017-12-30T03:16:26.562Z,75.50
2017-12-30T03:18:53.530Z,75.60
2017-12-30T03:21:19.734Z,75.70
2017-12-30T03:23:46.642Z,75.50
2017-12-30T03:26:12.782Z,75.60
2017-12-30T03:28:38.982Z,75.90
2017-12-30T03:31:05.158Z,75.40
2017-12-30T03:33:31.320Z,75.20
2017-12-30T03:35:58.254Z,74.50
2017-12-30T03:38:25.167Z,75.10
2017-12-30T03:40:51.328Z,75.00
2017-12-30T03:43:18.237Z,75.20
2017-12-30T03:45:45.222Z,75.00
2017-12-30T03:48:12.135Z,75.80
2017-12-30T03:50:38.257Z,75.80
2017-12-30T03:53:04.426Z,75.50
2017-12-30T03:55:30.610Z,76.10
2017-12-30T03:57:56.837Z,75.90
2017-12-30T04:00:23.066Z,76.60
2017-12-30T04:02:49.286Z,76.30
2017-12-30T04:05:15.470Z,77.20
2017-12-30T04:07:41.646Z,77.10
2017-12-30T04:10:07.866Z,76.80
2017-12-30T04:12:34.070Z,76.50
2017-12-30T04:15:00.241Z,75.70
2017-12-30T04:17:26.414Z,75.70
2017-12-30T04:19:52.629Z,75.50
2017-12-30T04:22:18.818Z,74.90
2017-12-30T04:24:45.006Z,75.00
2017-12-30T04:27:11.210Z,75.20
2017-12-30T04:29:38.127Z,75.40
2017-12-30T04:32:04.327Z,75.60
2017-12-30T04:34:30.483Z,75.40
2017-12-30T04:36:56.725Z,75.40
2017-12-30T04:39:23.028Z,75.50
2017-12-30T04:41:49.252Z,74.80
2017-12-30T04:44:15.462Z,75.20
2017-12-30T04:46:41.682Z,76.10
2017-12-30T04:49:07.863Z,76.60
2017-12-30T04:51:34.835Z,76.50
2017-12-30T04:54:01.058Z,76.50
2017-12-30T04:56:27.217Z,76.70
2017-12-30T04:58:53.418Z,76.60
2017-12-30T05:01:19.580Z,76.10
2017-12-30T05:03:45.739Z,75.70
2017-12-30T05:06:12.681Z,74.60
2017-12-30T05:08:39.635Z,75.30
2017-12-30T05:11:06.507Z,74.90
2017-12-30T05:13:32.697Z,74.80
2017-12-30T05:15:59.610Z,74.50
2017-12-30T05:18:25.846Z,74.60
2017-12-30T05:20:52.043Z,74.70
2017-12-30T05:23:18.189Z,74.70
2017-12-30T05:25:44.412Z,73.80
2017-12-30T05:28:10.577Z,73.40
2017-12-30T05:30:36.772Z,73.20
2017-12-30T05:33:02.928Z,73.20
2017-12-30T05:35:29.135Z,73.70
2017-12-30T05:37:55.294Z,72.80
2017-12-30T05:40:21.491Z,71.70
2017-12-30T05:42:47.714Z,72.00
2017-12-30T05:45:13.919Z,72.70
2017-12-30T05:47:40.147Z,72.60
2017-12-30T05:50:06.370Z,72.40
2017-12-30T05:52:32.493Z,72.70
2017-12-30T05:54:58.694Z,73.20
2017-12-30T05:57:25.631Z,73.40
2017-12-30T05:59:52.561Z,73.70
2017-12-30T06:02:18.740Z,73.70
2017-12-30T06:04:44.906Z,73.70
2017-12-30T06:07:11.074Z,73.80
2017-12-30T06:09:37.979Z,73.10
2017-12-30T06:12:04.186Z,73.10
2017-12-30T06:14:30.377Z,73.60
2017-12-30T06:16:57.310Z,74.00
2017-12-30T06:19:24.244Z,74.20
2017-12-30T06:21:51.164Z,74.00
2017-12-30T06:24:17.394Z,73.80
2017-12-30T06:26:44.330Z,71.90
2017-12-30T06:29:10.496Z,72.50
2017-12-30T06:31:37.468Z,73.80
2017-12-30T06:34:03.720Z,73.00
2017-12-30T06:36:29.946Z,72.80
2017-12-30T06:38:56.149Z,72.60
2017-12-30T06:41:22.315Z,72.80
2017-12-30T06:43:48.512Z,72.20
2017-12-30T06:46:14.738Z,73.60
2017-12-30T06:48:40.978Z,72.30
2017-12-30T06:51:07.206Z,71.90
2017-12-30T06:53:33.372Z,72.70
2017-12-30T06:56:00.360Z,72.70
2017-12-30T06:58:26.510Z,72.70
2017-12-30T07:00:52.668Z,73.00
2017-12-30T07:03:18.952Z,72.70
2017-12-30T07:05:45.134Z,72.30
2017-12-30T07:08:12.071Z,72.70
2017-12-30T07:10:38.306Z,71.90
2017-12-30T07:13:05.265Z,73.50
2017-12-30T07:15:32.207Z,72.30
2017-12-30T07:17:59.107Z,73.70
2017-12-30T07:20:25.276Z,73.70
2017-12-30T07:22:52.196Z,73.10
2017-12-30T07:25:18.394Z,73.60
2017-12-30T07:27:44.586Z,73.40
2017-12-30T07:30:11.528Z,73.60
2017-12-30T07:32:38.488Z,73.60
2017-12-30T07:35:04.640Z,73.60
2017-12-30T07:37:30.808Z,74.00
2017-12-30T07:39:57.041Z,74.00
2017-12-30T07:42:23.974Z,74.80
2017-12-30T07:44:50.223Z,74.00
2017-12-30T07:47:17.198Z,74.10
2017-12-30T07:49:43.405Z,74.10
2017-12-30T07:52:10.347Z,74.70
2017-12-30T07:54:37.319Z,74.40
2017-12-30T07:57:03.527Z,74.40
2017-12-30T07:59:30.494Z,74.70
2017-12-30T08:01:56.718Z,75.50
2017-12-30T08:04:22.919Z,74.50
2017-12-30T08:06:49.082Z,74.40
2017-12-30T08:09:15.255Z,74.90
2017-12-30T08:11:41.429Z,74.50
2017-12-30T08:14:07.604Z,74.70
2017-12-30T08:16:33.833Z,75.30
2017-12-30T08:19:00.031Z,76.10
2017-12-30T08:21:26.247Z,75.90
2017-12-30T08:23:52.432Z,76.10
2017-12-30T08:26:19.362Z,75.40
2017-12-30T08:28:45.566Z,75.40
2017-12-30T08:31:11.786Z,74.50
2017-12-30T08:33:37.986Z,74.50
2017-12-30T08:36:04.149Z,75.10
2017-12-30T08:38:30.398Z,76.60
2017-12-30T08:40:56.586Z,76.80
2017-12-30T08:43:22.754Z,76.70
2017-12-30T08:45:48.906Z,77.70
2017-12-30T08:48:15.863Z,77.80
2017-12-30T08:50:42.089Z,77.80
2017-12-30T08:53:08.990Z,77.20
2017-12-30T08:55:35.175Z,77.10
2017-12-30T08:58:01.379Z,78.20
2017-12-30T09:00:28.267Z,78.00
2017-12-30T09:02:54.434Z,77.90
2017-12-30T09:05:21.430Z,78.60
2017-12-30T09:07:47.615Z,78.60
2017-12-30T09:10:13.803Z,78.80
2017-12-30T09:12:40.029Z,78.70
2017-12-30T09:15:06.225Z,78.30
2017-12-30T09:17:32.440Z,78.30
2017-12-30T09:19:59.428Z,77.60
2017-12-30T09:22:25.609Z,77.60
2017-12-30T09:24:52.488Z,77.80
2017-12-30T09:27:18.631Z,77.80
2017-12-30T09:29:44.841Z,78.80
2017-12-30T09:32:10.998Z,78.90
2017-12-30T09:34:37.226Z,79.50
2017-12-30T09:37:03.434Z,79.60
2017-12-30T09:39:29.608Z,79.10
2017-12-30T09:41:56.527Z,79.30
2017-12-30T09:44:22.733Z,78.80
2017-12-30T09:46:48.982Z,79.90
2017-12-30T09:49:15.186Z,79.60
2017-12-30T09:51:41.370Z,79.20
2017-12-30T09:54:08.337Z,79.50
2017-12-30T09:56:34.501Z,79.60
2017-12-30T09:59:00.679Z,79.70
2017-12-30T10:01:27.606Z,79.90
2017-12-30T10:03:54.577Z,78.60
2017-12-30T10:06:20.721Z,78.60
2017-12-30T10:08:46.894Z,79.50
2017-12-30T10:11:12.998Z,79.50
2017-12-30T10:13:39.182Z,78.70
2017-12-30T10:16:05.409Z,79.10
2017-12-30T10:18:31.654Z,79.10
2017-12-30T10:20:57.792Z,79.60
2017-12-30T10:23:24.001Z,79.60
2017-12-30T10:25:50.218Z,79.40
2017-12-30T10:28:16.428Z,80.80
2017-12-30T10:30:43.407Z,80.30
2017-12-30T10:33:09.607Z,79.40
2017-12-30T10:35:36.496Z,80.70
2017-12-30T10:38:02.699Z,80.60
2017-12-30T10:40:28.829Z,81.00
2017-12-30T10:42:55.005Z,81.40
2017-12-30T10:45:21.234Z,81.20
2017-12-30T10:47:47.415Z,81.50
2017-12-30T10:50:13.578Z,81.80
2017-12-30T10:52:39.769Z,80.70
2017-12-30T10:55:05.969Z,81.00
2017-12-30T10:57:32.888Z,80.80
2017-12-30T10:59:59.078Z,80.70
2017-12-30T11:02:25.279Z,80.20
2017-12-30T11:04:51.527Z,81.00
2017-12-30T11:07:17.827Z,80.90
2017-12-30T11:09:44.748Z,81.00
2017-12-30T11:12:10.980Z,81.10
2017-12-30T11:14:37.857Z,81.50
2017-12-30T11:17:04.022Z,81.50
2017-12-30T11:19:30.238Z,80.80
2017-12-30T11:21:56.426Z,80.30
2017-12-30T11:24:23.399Z,81.30
2017-12-30T11:26:49.592Z,81.30
2017-12-30T11:29:16.570Z,80.10
2017-12-30T11:31:42.743Z,80.10
2017-12-30T11:34:08.956Z,83.00
2017-12-30T11:36:35.140Z,81.70
2017-12-30T11:39:02.151Z,82.00
2017-12-30T11:41:28.392Z,81.30
2017-12-30T11:43:55.362Z,83.10
2017-12-30T11:46:21.562Z,83.10
2017-12-30T11:48:47.744Z,82.70
2017-12-30T11:51:13.913Z,82.00
2017-12-30T11:53:40.826Z,83.50
2017-12-30T11:56:06.985Z,83.60
2017-12-30T11:58:33.954Z,82.80
2017-12-30T12:01:00.235Z,82.80
2017-12-30T12:03:26.458Z,82.70
2017-12-30T12:05:52.697Z,83.80
2017-12-30T12:08:18.853Z,82.50
2017-12-30T12:10:45.070Z,82.40
2017-12-30T12:13:11.252Z,82.00
2017-12-30T12:15:37.413Z,81.90
2017-12-30T12:18:03.617Z,81.50
2017-12-30T12:20:29.817Z,82.00
2017-12-30T12:22:56.034Z,81.10
2017-12-30T12:25:22.203Z,83.00
2017-12-30T12:27:48.393Z,82.10
2017-12-30T12:30:15.308Z,83.30
2017-12-30T12:32:41.502Z,83.20
2017-12-30T12:35:07.639Z,82.40
2017-12-30T12:37:33.827Z,83.30
2017-12-30T12:40:00.034Z,83.40
2017-12-30T12:42:27.015Z,82.50
2017-12-30T12:44:53.216Z,82.50
2017-12-30T12:47:20.152Z,83.30
2017-12-30T12:49:47.089Z,84.00
2017-12-30T12:52:14.055Z,83.20
2017-12-30T12:54:40.203Z,83.20
2017-12-30T12:57:06.405Z,83.30
2017-12-30T12:59:32.569Z,83.50
2017-12-30T13:01:58.792Z,82.80
2017-12-30T13:04:24.997Z,83.10
2017-12-30T13:06:51.198Z,82.90
2017-12-30T13:09:18.198Z,83.40
2017-12-30T13:11:44.357Z,83.40
2017-12-30T13:14:10.551Z,83.10
2017-12-30T13:16:36.736Z,83.10
2017-12-30T13:19:03.727Z,83.40
2017-12-30T13:21:29.938Z,83.40
2017-12-30T13:23:56.125Z,82.50
2017-12-30T13:26:23.062Z,83.30
2017-12-30T13:28:49.237Z,83.60
2017-12-30T13:31:15.397Z,82.90
2017-12-30T13:33:41.584Z,82.20
2017-12-30T13:36:07.761Z,82.10
2017-12-30T13:38:34.001Z,81.70
2017-12-30T13:41:00.189Z,81.20
2017-12-30T13:43:26.396Z,82.10
2017-12-30T13:45:52.577Z,81.50
2017-12-30T13:48:18.712Z,81.00
2017-12-30T13:50:45.631Z,81.70
2017-12-30T13:53:11.803Z,81.50
2017-12-30T13:55:38.026Z,80.70
2017-12-30T13:58:04.954Z,80.60
2017-12-30T14:00:31.832Z,80.80
2017-12-30T14:02:57.982Z,80.80
2017-12-30T14:05:24.218Z,80.70
2017-12-30T14:07:50.377Z,81.10
2017-12-30T14:10:17.291Z,80.50
2017-12-30T14:12:43.476Z,80.50
2017-12-30T14:15:10.441Z,80.50
2017-12-30T14:17:36.671Z,80.50
2017-12-30T14:20:03.008Z,80.70
2017-12-30T14:22:29.255Z,80.30
2017-12-30T14:24:55.456Z,79.50
2017-12-30T14:27:21.627Z,80.50
2017-12-30T14:29:47.805Z,79.30
2017-12-30T14:32:14.013Z,79.60
2017-12-30T14:34:40.942Z,79.70
2017-12-30T14:37:08.240Z,80.20
2017-12-30T14:39:34.482Z,79.10
2017-12-30T14:42:00.693Z,79.50
2017-12-30T14:44:26.884Z,79.80
2017-12-30T14:46:53.027Z,80.90
2017-12-30T14:49:19.951Z,79.30
2017-12-30T14:51:46.182Z,79.30
2017-12-30T14:54:12.382Z,79.10
2017-12-30T14:56:39.381Z,78.50
2017-12-30T14:59:05.534Z,78.60
2017-12-30T15:01:31.706Z,80.80
2017-12-30T15:03:57.910Z,79.80
2017-12-30T15:06:24.123Z,80.10
2017-12-30T15:08:50.328Z,80.00
2017-12-30T15:11:16.505Z,81.20
2017-12-30T15:13:42.739Z,79.40
2017-12-30T15:16:08.971Z,79.70
2017-12-30T15:18:35.158Z,80.60
2017-12-30T15:21:01.402Z,78.70
2017-12-30T15:23:27.566Z,78.90
2017-12-30T15:25:54.528Z,79.40
2017-12-30T15:28:20.716Z,79.40
2017-12-30T15:30:46.885Z,79.50
2017-12-30T15:33:13.114Z,79.00
2017-12-30T15:35:39.280Z,78.80
2017-12-30T15:38:05.525Z,79.20
2017-12-30T15:40:31.702Z,79.00
2017-12-30T15:42:57.840Z,79.10
2017-12-30T15:45:24.022Z,78.40
2017-12-30T15:47:50.171Z,79.00
2017-12-30T15:50:16.413Z,78.70
2017-12-30T15:52:42.617Z,78.60
2017-12-30T15:55:09.531Z,78.30
2017-12-30T15:57:35.757Z,78.40
2017-12-30T16:00:02.019Z,78.60
2017-12-30T16:02:28.962Z,78.40
2017-12-30T16:04:55.905Z,78.50
2017-12-30T16:07:23.015Z,78.40
2017-12-30T16:09:49.221Z,78.20
2017-12-30T16:12:15.371Z,79.00
2017-12-30T16:14:41.522Z,78.70
2017-12-30T16:17:08.549Z,78.30
2017-12-30T16:19:34.769Z,78.30
2017-12-30T16:22:00.957Z,78.20
2017-12-30T16:24:27.160Z,78.60
2017-12-30T16:26:54.075Z,79.20
2017-12-30T16:29:20.230Z,78.40
2017-12-30T16:31:47.161Z,78.60
2017-12-30T16:34:14.102Z,78.50
2017-12-30T16:36:41.077Z,78.80
2017-12-30T16:39:08.043Z,78.90
2017-12-30T16:41:34.300Z,78.80
2017-12-30T16:44:00.592Z,78.20
2017-12-30T16:46:26.784Z,78.30
2017-12-30T16:48:53.946Z,78.60
2017-12-30T16:51:20.956Z,79.30
2017-12-30T16:53:47.156Z,79.30
2017-12-30T16:56:13.363Z,79.20
2017-12-30T16:58:40.319Z,78.70
2017-12-30T17:01:06.523Z,78.80
2017-12-30T17:03:40.529Z,79.10
2017-12-30T17:06:06.665Z,79.10
2017-12-30T17:08:33.634Z,79.00
2017-12-30T17:10:59.873Z,78.90
2017-12-30T17:13:26.093Z,79.80
2017-12-30T17:15:52.291Z,78.90
2017-12-30T17:18:19.233Z,78.90
2017-12-30T17:20:46.211Z,79.30
2017-12-30T17:23:12.434Z,79.20
2017-12-30T17:25:38.626Z,79.50
2017-12-30T17:28:05.536Z,78.60
2017-12-30T17:30:31.715Z,78.70
2017-12-30T17:32:58.604Z,79.20
2017-12-30T17:35:24.791Z,79.20
2017-12-30T17:37:51.731Z,79.00
2017-12-30T17:40:18.686Z,79.40
2017-12-30T17:42:45.608Z,78.90
2017-12-30T17:45:12.522Z,79.70
2017-12-30T17:47:38.720Z,79.70
2017-12-30T17:50:04.950Z,79.90
2017-12-30T17:52:31.090Z,79.80
2017-12-30T17:54:57.285Z,79.20
2017-12-30T17:57:24.210Z,79.60
2017-12-30T17:59:51.135Z,78.60
2017-12-30T18:02:17.344Z,78.60
2017-12-30T18:04:43.554Z,78.40
2017-12-30T18:07:09.730Z,79.00
2017-12-30T18:09:35.936Z,79.00
2017-12-30T18:12:02.172Z,80.60
2017-12-30T18:14:28.421Z,80.30
2017-12-30T18:16:55.370Z,80.00
2017-12-30T18:19:22.339Z,80.20
2017-12-30T18:21:48.569Z,80.20
2017-12-30T18:24:14.743Z,79.20
2017-12-30T18:26:40.934Z,80.00
2017-12-30T18:29:07.050Z,80.00
2017-12-30T18:31:33.271Z,79.90
2017-12-30T18:34:00.160Z,80.20
2017-12-30T18:36:26.319Z,80.10
2017-12-30T18:38:53.265Z,79.80
2017-12-30T18:41:20.215Z,79.60
2017-12-30T18:43:47.195Z,80.50
2017-12-30T18:46:13.374Z,80.40
2017-12-30T18:48:40.270Z,80.80
2017-12-30T18:51:06.422Z,80.80
2017-12-30T18:53:32.574Z,81.50
2017-12-30T18:55:59.482Z,80.20
2017-12-30T18:58:25.642Z,80.20
2017-12-30T19:00:52.591Z,80.10
2017-12-30T19:03:18.744Z,80.10
2017-12-30T19:05:45.627Z,80.00
2017-12-30T19:08:11.849Z,80.00
2017-12-30T19:10:38.018Z,80.00
2017-12-30T19:13:04.906Z,80.20
2017-12-30T19:15:31.136Z,80.20
2017-12-30T19:17:57.279Z,79.20
2017-12-30T19:20:23.482Z,79.00
2017-12-30T19:22:49.639Z,79.00
2017-12-30T19:25:15.762Z,79.60
2017-12-30T19:27:41.991Z,79.30
2017-12-30T19:30:08.148Z,79.00
2017-12-30T19:32:34.339Z,78.80
2017-12-30T19:35:00.478Z,79.40
2017-12-30T19:37:26.619Z,79.20
2017-12-30T19:39:53.563Z,79.50
2017-12-30T19:42:19.729Z,79.50
2017-12-30T19:44:45.933Z,79.70
2017-12-30T19:47:12.861Z,80.10
2017-12-30T19:49:39.045Z,80.10
2017-12-30T19:52:05.226Z,80.10
2017-12-30T19:54:31.466Z,79.60
2017-12-30T19:56:58.422Z,80.00
2017-12-30T19:59:25.390Z,80.00
2017-12-30T20:01:51.652Z,80.00
2017-12-30T20:04:17.911Z,79.90
2017-12-30T20:06:44.882Z,79.60
2017-12-30T20:09:11.101Z,79.50
2017-12-30T20:11:38.064Z,80.40
2017-12-30T20:14:04.255Z,80.30
2017-12-30T20:16:31.198Z,79.80
2017-12-30T20:18:57.370Z,79.80
2017-12-30T20:21:23.549Z,79.70
2017-12-30T20:23:50.504Z,79.20
2017-12-30T20:26:17.466Z,80.40
2017-12-30T20:28:43.651Z,79.70
2017-12-30T20:31:10.549Z,79.60
2017-12-30T20:33:36.695Z,79.70
2017-12-30T20:36:02.873Z,79.50
2017-12-30T20:38:29.055Z,80.00
2017-12-30T20:40:55.271Z,79.50
2017-12-30T20:43:21.466Z,80.00
2017-12-30T20:45:48.377Z,80.40
2017-12-30T20:48:14.651Z,80.40
2017-12-30T20:50:40.820Z,80.50
2017-12-30T20:53:07.037Z,80.10
2017-12-30T20:55:33.251Z,80.90
2017-12-30T20:57:59.383Z,80.20
2017-12-30T21:00:25.594Z,80.20
2017-12-30T21:02:51.771Z,80.10
2017-12-30T21:05:17.918Z,79.80
2017-12-30T21:07:44.884Z,80.10
2017-12-30T21:10:11.110Z,80.00
2017-12-30T21:12:37.275Z,81.40
2017-12-30T21:15:03.444Z,81.60
2017-12-30T21:17:29.668Z,81.20
2017-12-30T21:19:55.797Z,80.40
2017-12-30T21:22:22.022Z,81.50
2017-12-30T21:24:48.243Z,81.90
2017-12-30T21:27:14.466Z,80.80
2017-12-30T21:29:41.364Z,82.20
2017-12-30T21:32:07.524Z,82.30
2017-12-30T21:34:33.715Z,82.20
2017-12-30T21:36:59.921Z,83.50
2017-12-30T21:39:26.855Z,84.30
2017-12-30T21:41:53.750Z,83.70
2017-12-30T21:44:19.938Z,83.40
2017-12-30T21:46:46.865Z,81.10
2017-12-30T21:49:13.088Z,81.00
2017-12-30T21:51:39.250Z,80.60
2017-12-30T21:54:05.454Z,81.90
2017-12-30T21:56:32.358Z,82.50
2017-12-30T21:58:58.587Z,82.10
2017-12-30T22:01:24.834Z,82.20
2017-12-30T22:03:51.752Z,84.40
2017-12-30T22:06:17.945Z,84.50
2017-12-30T22:08:44.165Z,85.00
2017-12-30T22:11:11.115Z,86.20
2017-12-30T22:13:38.089Z,86.00
2017-12-30T22:16:04.306Z,86.10
2017-12-30T22:18:30.503Z,85.30
2017-12-30T22:20:57.460Z,86.30
2017-12-30T22:23:24.367Z,84.90
2017-12-30T22:25:50.561Z,84.80
2017-12-30T22:28:16.765Z,85.60
2017-12-30T22:30:43.065Z,85.30
2017-12-30T22:33:09.279Z,83.30
2017-12-30T22:35:35.455Z,85.40
2017-12-30T22:38:01.680Z,86.10
2017-12-30T22:40:27.923Z,85.60
2017-12-30T22:42:54.126Z,84.20
2017-12-30T22:45:21.024Z,83.10
2017-12-30T22:47:47.235Z,83.00
2017-12-30T22:50:13.424Z,83.30
2017-12-30T22:52:40.346Z,81.80
2017-12-30T22:55:06.534Z,81.80
2017-12-30T22:57:32.649Z,81.90
2017-12-30T22:59:58.830Z,82.30
2017-12-30T23:02:25.082Z,81.10
2017-12-30T23:04:52.006Z,82.80
2017-12-30T23:07:18.926Z,83.20
2017-12-30T23:09:45.150Z,83.10
2017-12-30T23:12:11.424Z,83.80
2017-12-30T23:14:38.289Z,85.70
2017-12-30T23:17:04.535Z,85.60
2017-12-30T23:19:30.710Z,85.50
2017-12-30T23:21:57.602Z,85.60
2017-12-30T23:24:23.812Z,85.60
2017-12-30T23:26:49.975Z,85.80
2017-12-30T23:29:16.185Z,85.90
2017-12-30T23:31:42.369Z,87.30
2017-12-30T23:34:09.308Z,88.00
2017-12-30T23:36:36.265Z,87.30
2017-12-30T23:39:03.234Z,88.30
2017-12-30T23:41:29.448Z,88.20
2017-12-30T23:43:55.618Z,87.70
2017-12-30T23:46:21.868Z,86.80
2017-12-30T23:48:48.759Z,86.90
2017-12-30T23:51:14.922Z,86.90
2017-12-30T23:53:41.087Z,85.90
2017-12-30T23:56:08.002Z,87.70
2017-12-30T23:58:34.202Z,87.00
